createdAt,value
2022-11-18T00:01:00.052Z,60.45
2022-11-18T00:03:41.239Z,60.26
2022-11-18T00:06:16.026Z,60.38
2022-11-18T00:08:48.275Z,60.31
2022-11-18T00:14:39.205Z,60.56
2022-11-18T00:17:09.911Z,60.35
2022-11-18T00:19:43.127Z,59.86
2022-11-18T00:22:16.489Z,59.66
2022-11-18T00:24:48.645Z,59.56
2022-11-18T00:27:29.919Z,59.54
2022-11-18T00:30:04.671Z,58.99
2022-11-18T00:32:43.497Z,57.58
2022-11-18T00:35:25.183Z,56.66
2022-11-18T00:37:57.933Z,57.34
2022-11-18T00:40:35.367Z,56.89
2022-11-18T00:43:06.791Z,57.05
2022-11-18T00:45:54.153Z,56.73
2022-11-18T00:48:28.338Z,56.82
2022-11-18T00:51:03.301Z,56.98
2022-11-18T00:53:58.594Z,56.43
2022-11-18T00:56:33.000Z,56.15
2022-11-18T00:59:11.227Z,56.16
2022-11-18T01:01:46.665Z,56.06
2022-11-18T01:04:25.994Z,56.09
2022-11-18T01:07:02.523Z,56.47
2022-11-18T01:09:41.780Z,56.04
2022-11-18T01:12:30.494Z,55.88
2022-11-18T01:15:01.991Z,55.90
2022-11-18T01:17:35.758Z,55.95
2022-11-18T01:20:07.932Z,57.12
2022-11-18T01:22:38.411Z,57.27
2022-11-18T01:25:11.061Z,57.60
2022-11-18T01:27:49.148Z,58.89
2022-11-18T01:30:21.150Z,60.68
2022-11-18T01:32:53.666Z,61.41
2022-11-18T01:35:24.681Z,61.94
2022-11-18T01:38:10.904Z,62.75
2022-11-18T01:40:41.275Z,62.26
2022-11-18T01:43:19.485Z,62.42
2022-11-18T01:45:56.537Z,62.77
2022-11-18T01:48:39.614Z,62.56
2022-11-18T01:51:18.334Z,62.84
2022-11-18T01:53:56.283Z,62.74
2022-11-18T01:56:29.978Z,63.21
2022-11-18T01:59:01.584Z,63.60
2022-11-18T02:01:43.263Z,63.46
2022-11-18T02:04:15.104Z,63.11
2022-11-18T02:06:54.624Z,62.84
2022-11-18T02:09:30.178Z,62.83
2022-11-18T02:12:07.929Z,62.99
2022-11-18T02:14:43.658Z,62.83
2022-11-18T02:17:22.039Z,63.67
2022-11-18T02:20:25.191Z,63.90
2022-11-18T02:23:28.719Z,65.58
2022-11-18T02:26:48.838Z,64.32
2022-11-18T02:30:34.804Z,63.07
2022-11-18T02:43:28.535Z,64.85
2022-11-18T02:46:24.137Z,65.44
2022-11-18T02:49:09.049Z,66.16
2022-11-18T02:51:56.290Z,66.40
2022-11-18T02:54:43.630Z,66.69
2022-11-18T02:57:56.690Z,66.59
2022-11-18T03:00:50.739Z,65.73
2022-11-18T03:03:44.763Z,65.91
2022-11-18T03:06:30.414Z,65.60
2022-11-18T03:09:09.179Z,65.43
2022-11-18T03:11:53.888Z,65.62
2022-11-18T03:14:27.084Z,65.58
2022-11-18T03:17:01.907Z,65.15
2022-11-18T03:20:14.481Z,65.08
2022-11-18T03:23:24.509Z,65.29
2022-11-18T03:39:05.674Z,66.88
2022-11-18T03:41:38.716Z,67.88
2022-11-18T03:44:09.871Z,67.12
2022-11-18T03:46:48.363Z,66.56
2022-11-18T03:49:20.106Z,67.24
2022-11-18T03:52:05.664Z,67.09
2022-11-18T03:54:36.119Z,66.78
2022-11-18T03:57:12.040Z,66.77
2022-11-18T03:59:42.868Z,65.74
2022-11-18T04:02:19.920Z,65.30
2022-11-18T04:04:51.785Z,65.33
2022-11-18T04:10:20.129Z,65.77
2022-11-18T04:12:53.260Z,65.57
2022-11-18T04:15:25.972Z,66.03
2022-11-18T04:18:37.077Z,65.48
2022-11-18T04:21:24.077Z,65.54
2022-11-18T04:28:12.030Z,65.67
2022-11-18T04:30:44.440Z,65.62
2022-11-18T04:33:20.625Z,65.48
2022-11-18T04:35:52.446Z,65.52
2022-11-18T04:38:22.215Z,65.21
2022-11-18T04:40:52.884Z,65.21
2022-11-18T04:43:26.608Z,65.46
2022-11-18T04:45:58.069Z,64.94
2022-11-18T04:48:27.929Z,65.29
2022-11-18T04:51:00.742Z,64.93
2022-11-18T04:53:37.110Z,64.85
2022-11-18T04:56:09.956Z,64.71
2022-11-18T04:58:47.573Z,64.43
2022-11-18T05:01:19.402Z,64.46
2022-11-18T05:03:55.678Z,64.32
2022-11-18T05:06:27.888Z,63.84
2022-11-18T05:08:57.705Z,63.61
2022-11-18T05:11:44.235Z,63.75
2022-11-18T05:14:22.250Z,63.73
2022-11-18T05:16:54.463Z,63.41
2022-11-18T05:22:20.824Z,63.38
2022-11-18T05:24:59.693Z,63.28
2022-11-18T05:27:33.139Z,63.37
2022-11-18T05:30:05.423Z,63.55
2022-11-18T05:32:36.140Z,62.74
2022-11-18T05:35:11.277Z,62.83
2022-11-18T05:37:43.941Z,62.40
2022-11-18T05:40:29.159Z,62.38
2022-11-18T05:43:26.811Z,62.06
2022-11-18T05:46:01.573Z,61.72
2022-11-18T05:48:38.197Z,61.71
2022-11-18T05:51:09.573Z,61.91
2022-11-18T05:53:40.747Z,61.68
2022-11-18T05:56:17.417Z,61.74
2022-11-18T05:58:49.715Z,61.78
2022-11-18T06:01:44.069Z,61.49
2022-11-18T06:04:18.902Z,61.37
2022-11-18T06:06:48.504Z,61.28
2022-11-18T06:09:18.303Z,61.26
2022-11-18T06:11:51.417Z,60.69
2022-11-18T06:14:29.885Z,60.48
2022-11-18T06:17:06.646Z,59.97
2022-11-18T06:19:49.931Z,59.66
2022-11-18T06:22:26.772Z,59.54
2022-11-18T06:24:57.940Z,59.54
2022-11-18T06:27:35.262Z,59.44
2022-11-18T06:30:11.166Z,59.30
2022-11-18T06:32:46.778Z,58.77
2022-11-18T06:35:16.505Z,58.90
2022-11-18T06:37:46.860Z,58.61
2022-11-18T06:40:20.195Z,58.84
2022-11-18T06:43:15.029Z,59.25
2022-11-18T06:46:09.483Z,59.17
2022-11-18T06:48:48.784Z,59.00
2022-11-18T06:51:21.022Z,59.37
2022-11-18T06:53:55.655Z,59.78
2022-11-18T06:56:25.595Z,60.14
2022-11-18T06:58:59.678Z,59.97
2022-11-18T07:01:33.278Z,59.55
2022-11-18T07:04:17.468Z,59.92
2022-11-18T07:06:52.003Z,59.61
2022-11-18T07:09:26.782Z,59.11
2022-11-18T07:12:01.957Z,58.75
2022-11-18T07:14:42.423Z,58.33
2022-11-18T07:17:13.044Z,58.72
2022-11-18T07:19:49.307Z,59.28
2022-11-18T07:22:20.599Z,59.43
2022-11-18T07:24:52.457Z,59.30
2022-11-18T07:27:35.146Z,59.54
2022-11-18T07:30:10.335Z,59.83
2022-11-18T07:32:41.942Z,59.69
2022-11-18T07:35:35.967Z,59.61
2022-11-18T07:38:08.529Z,59.23
2022-11-18T07:40:39.659Z,59.45
2022-11-18T07:46:21.823Z,59.16
2022-11-18T07:49:09.904Z,58.58
2022-11-18T07:51:44.961Z,58.20
2022-11-18T07:54:32.572Z,57.79
2022-11-18T07:57:05.523Z,57.70
2022-11-18T07:59:39.465Z,57.64
2022-11-18T08:02:09.191Z,56.93
2022-11-18T08:04:40.827Z,57.24
2022-11-18T08:08:15.053Z,56.66
2022-11-18T08:10:54.652Z,56.99
2022-11-18T08:13:29.877Z,57.08
2022-11-18T08:16:05.814Z,56.92
2022-11-18T08:18:45.897Z,57.01
2022-11-18T08:21:21.438Z,56.77
2022-11-18T08:24:57.754Z,57.05
2022-11-18T08:27:35.833Z,56.85
2022-11-18T08:34:47.258Z,56.35
2022-11-18T08:37:24.291Z,55.93
2022-11-18T08:39:55.491Z,56.26
2022-11-18T08:42:42.640Z,55.97
2022-11-18T08:45:27.047Z,55.41
2022-11-18T08:48:23.902Z,55.42
2022-11-18T08:50:59.614Z,55.65
2022-11-18T08:53:29.160Z,55.22
2022-11-18T08:59:50.288Z,54.67
2022-11-18T09:02:29.570Z,54.28
2022-11-18T09:05:23.904Z,53.94
2022-11-18T09:08:21.084Z,53.52
2022-11-18T09:11:00.519Z,53.68
2022-11-18T09:14:20.529Z,53.35
2022-11-18T09:16:44.557Z,53.32
2022-11-18T09:19:45.524Z,53.71
2022-11-18T09:22:15.479Z,53.27
2022-11-18T09:25:11.009Z,53.09
2022-11-18T09:27:53.693Z,52.66
2022-11-18T09:30:52.106Z,51.97
2022-11-18T09:33:32.365Z,51.68
2022-11-18T09:36:09.917Z,51.13
2022-11-18T09:38:47.428Z,51.24
2022-11-18T09:48:51.038Z,51.77
2022-11-18T09:51:26.493Z,51.36
2022-11-18T09:54:11.682Z,51.24
2022-11-18T09:57:00.452Z,50.80
2022-11-18T10:00:10.490Z,50.96
2022-11-18T10:03:18.851Z,51.13
2022-11-18T10:06:08.982Z,51.18
2022-11-18T10:08:46.235Z,51.33
2022-11-18T10:11:19.989Z,50.56
2022-11-18T10:14:13.474Z,50.24
2022-11-18T10:16:46.106Z,49.96
2022-11-18T10:19:25.457Z,49.66
2022-11-18T10:23:30.956Z,50.03
2022-11-18T10:26:07.247Z,50.48
2022-11-18T10:29:49.367Z,49.95
2022-11-18T10:33:45.904Z,50.56
2022-11-18T10:37:17.661Z,50.51
2022-11-18T10:44:05.814Z,49.11
2022-11-18T10:47:00.740Z,49.32
2022-11-18T10:49:47.176Z,48.69
2022-11-18T10:52:36.026Z,48.53
2022-11-18T10:55:50.461Z,48.59
2022-11-18T10:58:56.045Z,49.17
2022-11-18T11:08:04.584Z,49.72
2022-11-18T11:11:23.517Z,48.87
2022-11-18T11:13:59.004Z,48.64
2022-11-18T11:16:53.700Z,48.67
2022-11-18T11:19:33.677Z,48.18
2022-11-18T11:22:18.553Z,48.22
2022-11-18T11:31:09.550Z,47.18
2022-11-18T11:33:43.755Z,46.78
2022-11-18T11:36:31.851Z,47.16
2022-11-18T11:39:28.859Z,46.83
2022-11-18T11:42:14.849Z,46.68
2022-11-18T11:45:35.120Z,46.20
2022-11-18T11:48:50.135Z,46.31
2022-11-18T11:54:57.083Z,46.35
2022-11-18T11:57:57.141Z,46.09
2022-11-18T12:01:29.414Z,46.14
2022-11-18T12:05:09.750Z,46.39
2022-11-18T12:08:28.958Z,45.83
2022-11-18T12:14:26.421Z,45.46
2022-11-18T12:17:27.308Z,44.55
2022-11-18T12:20:47.134Z,44.09
2022-11-18T12:23:52.269Z,44.77
2022-11-18T12:26:53.274Z,44.96
2022-11-18T12:40:07.929Z,45.71
2022-11-18T12:46:06.151Z,45.11
2022-11-18T12:52:12.520Z,44.81
2022-11-18T12:55:21.739Z,44.88
2022-11-18T12:58:31.941Z,45.02
2022-11-18T13:01:19.735Z,44.09
2022-11-18T13:03:50.192Z,44.42
2022-11-18T13:06:39.114Z,45.55
2022-11-18T13:09:47.990Z,45.28
2022-11-18T13:12:58.345Z,45.30
2022-11-18T13:19:08.880Z,44.00
2022-11-18T13:22:02.301Z,44.14
2022-11-18T13:25:00.544Z,44.14
2022-11-18T13:28:24.838Z,43.95
2022-11-18T13:31:26.014Z,43.83
2022-11-18T13:34:31.723Z,44.20
2022-11-18T13:37:18.660Z,44.30
2022-11-18T13:43:24.700Z,44.31
2022-11-18T13:46:02.066Z,44.37
2022-11-18T13:48:45.988Z,44.29
2022-11-18T14:01:11.234Z,44.44
2022-11-18T14:04:40.280Z,44.49
2022-11-18T14:07:29.507Z,44.89
2022-11-18T14:10:07.941Z,44.97
2022-11-18T14:18:41.945Z,44.68
2022-11-18T14:21:26.193Z,44.50
2022-11-18T14:24:09.140Z,44.57
2022-11-18T14:26:44.830Z,44.84
2022-11-18T14:29:37.539Z,44.72
2022-11-18T14:32:29.330Z,44.83
2022-11-18T14:35:11.555Z,44.38
2022-11-18T14:37:46.643Z,44.36
2022-11-18T14:40:44.168Z,43.81
2022-11-18T14:43:21.353Z,43.53
2022-11-18T14:45:57.066Z,43.74
2022-11-18T14:51:28.253Z,43.07
2022-11-18T14:53:57.223Z,42.60
2022-11-18T14:56:35.154Z,42.67
2022-11-18T14:59:18.041Z,42.66
2022-11-18T15:01:53.239Z,43.00
2022-11-18T15:04:24.458Z,43.27
2022-11-18T15:09:44.932Z,43.12
2022-11-18T15:12:43.233Z,42.88
2022-11-18T15:15:36.054Z,42.66
2022-11-18T15:18:24.633Z,42.76
2022-11-18T15:21:54.486Z,42.58
2022-11-18T15:25:09.969Z,42.99
2022-11-18T15:31:12.329Z,43.34
2022-11-18T15:37:28.251Z,43.92
2022-11-18T15:43:22.105Z,43.73
2022-11-18T15:45:59.911Z,43.45
2022-11-18T15:51:31.949Z,44.04
2022-11-18T15:54:09.476Z,44.26
2022-11-18T15:56:43.798Z,44.53
2022-11-18T15:59:16.535Z,45.02
2022-11-18T16:01:56.855Z,44.99
2022-11-18T16:04:36.018Z,45.15
2022-11-18T16:07:09.404Z,45.35
2022-11-18T16:10:03.056Z,45.76
2022-11-18T16:12:49.344Z,45.76
2022-11-18T16:16:04.656Z,45.93
2022-11-18T16:18:41.081Z,45.58
2022-11-18T16:24:17.636Z,45.82
2022-11-18T16:27:04.672Z,45.85
2022-11-18T16:29:54.913Z,45.46
2022-11-18T16:32:45.993Z,45.21
2022-11-18T16:35:28.191Z,45.31
2022-11-18T16:37:59.643Z,45.56
2022-11-18T16:40:32.186Z,45.74
2022-11-18T16:43:04.386Z,45.85
2022-11-18T16:45:38.912Z,45.81
2022-11-18T16:48:14.489Z,45.89
2022-11-18T16:51:14.772Z,46.31
2022-11-18T16:53:59.796Z,46.24
2022-11-18T16:59:46.301Z,46.27
2022-11-18T17:05:16.524Z,46.03
2022-11-18T17:07:55.444Z,45.89
2022-11-18T17:10:38.085Z,45.93
2022-11-18T17:13:12.191Z,46.06
2022-11-18T17:16:09.651Z,46.09
2022-11-18T17:18:46.648Z,46.37
2022-11-18T17:21:25.666Z,46.66
2022-11-18T17:23:56.957Z,46.79
2022-11-18T17:26:33.438Z,46.72
2022-11-18T17:29:03.709Z,47.06
2022-11-18T17:31:32.445Z,47.19
2022-11-18T17:34:04.717Z,47.20
2022-11-18T17:39:42.069Z,47.38
2022-11-18T17:42:19.364Z,47.41
2022-11-18T17:44:48.977Z,47.76
2022-11-18T17:47:19.603Z,47.39
2022-11-18T17:49:49.397Z,47.35
2022-11-18T17:52:25.798Z,47.18
2022-11-18T17:54:55.613Z,47.39
2022-11-18T17:57:25.699Z,47.37
2022-11-18T17:59:53.979Z,47.46
2022-11-18T18:02:23.774Z,47.54
2022-11-18T18:04:51.744Z,47.29
2022-11-18T18:07:22.181Z,47.66
2022-11-18T18:09:53.015Z,47.61
2022-11-18T18:12:39.807Z,47.96
2022-11-18T18:15:16.945Z,47.82
2022-11-18T18:17:51.822Z,48.09
2022-11-18T18:20:22.758Z,48.30
2022-11-18T18:22:59.841Z,48.57
2022-11-18T18:25:31.804Z,48.34
2022-11-18T18:28:02.658Z,48.29
2022-11-18T18:30:32.952Z,48.48
2022-11-18T18:33:03.746Z,48.51
2022-11-18T18:35:33.576Z,48.77
2022-11-18T18:38:06.177Z,48.86
2022-11-18T18:40:35.937Z,48.83
2022-11-18T18:43:04.782Z,48.70
2022-11-18T18:46:02.236Z,48.37
2022-11-18T18:48:31.658Z,48.72
2022-11-18T18:51:07.030Z,48.24
2022-11-18T18:53:39.071Z,48.26
2022-11-18T18:56:11.106Z,47.89
2022-11-18T18:58:39.891Z,47.96
2022-11-18T19:01:12.893Z,47.69
2022-11-18T19:03:46.502Z,47.72
2022-11-18T19:06:50.173Z,47.72
2022-11-18T19:09:14.510Z,47.80
2022-11-18T19:12:01.362Z,47.80
2022-11-18T19:14:30.024Z,48.41
2022-11-18T19:17:11.238Z,48.57
2022-11-18T19:20:05.555Z,48.57
2022-11-18T19:22:37.341Z,48.40
2022-11-18T19:25:14.881Z,48.66
2022-11-18T19:27:44.862Z,48.42
2022-11-18T19:30:14.978Z,48.70
2022-11-18T19:32:51.962Z,48.79
2022-11-18T19:35:24.641Z,48.51
2022-11-18T19:37:57.754Z,48.55
2022-11-18T19:40:34.561Z,48.81
2022-11-18T19:43:03.524Z,48.94
2022-11-18T19:45:32.556Z,48.91
2022-11-18T19:48:02.775Z,49.30
2022-11-18T19:50:33.151Z,49.21
2022-11-18T19:53:25.109Z,49.29
2022-11-18T19:55:58.029Z,49.17
2022-11-18T19:58:27.713Z,48.92
2022-11-18T20:00:59.702Z,49.17
2022-11-18T20:03:32.534Z,49.27
2022-11-18T20:06:03.398Z,49.25
2022-11-18T20:08:36.025Z,49.50
2022-11-18T20:11:09.882Z,49.72
2022-11-18T20:13:38.447Z,49.85
2022-11-18T20:16:10.043Z,49.77
2022-11-18T20:18:40.351Z,49.40
2022-11-18T20:21:10.212Z,49.43
2022-11-18T20:23:41.887Z,49.66
2022-11-18T20:26:17.905Z,49.55
2022-11-18T20:28:49.590Z,49.26
2022-11-18T20:31:23.695Z,49.31
2022-11-18T20:34:04.765Z,49.70
2022-11-18T20:36:58.500Z,49.42
2022-11-18T20:39:28.829Z,49.84
2022-11-18T20:42:16.613Z,49.91
2022-11-18T20:44:45.599Z,50.12
2022-11-18T20:47:15.499Z,50.25
2022-11-18T20:49:45.953Z,49.83
2022-11-18T20:52:19.374Z,49.92
2022-11-18T20:54:51.025Z,50.15
2022-11-18T20:57:27.389Z,50.49
2022-11-18T20:59:57.846Z,50.27
2022-11-18T21:02:27.458Z,50.44
2022-11-18T21:05:00.482Z,50.94
2022-11-18T21:07:35.445Z,51.01
2022-11-18T21:10:07.610Z,50.74
2022-11-18T21:12:57.467Z,50.88
2022-11-18T21:15:30.837Z,51.03
2022-11-18T21:18:00.034Z,50.78
2022-11-18T21:20:53.459Z,50.98
2022-11-18T21:23:26.250Z,51.29
2022-11-18T21:26:01.217Z,51.24
2022-11-18T21:28:49.550Z,51.16
2022-11-18T21:31:23.399Z,51.26
2022-11-18T21:33:59.946Z,51.58
2022-11-18T21:36:31.294Z,51.39
2022-11-18T21:39:06.102Z,51.76
2022-11-18T21:41:36.457Z,51.75
2022-11-18T21:44:09.795Z,51.63
2022-11-18T21:46:43.032Z,51.69
2022-11-18T21:49:19.062Z,51.46
2022-11-18T21:51:54.337Z,51.83
2022-11-18T21:54:26.554Z,51.50
2022-11-18T21:56:58.625Z,51.32
2022-11-18T21:59:30.396Z,51.42
2022-11-18T22:02:02.037Z,51.46
2022-11-18T22:04:52.278Z,51.71
2022-11-18T22:07:23.709Z,51.51
2022-11-18T22:09:58.710Z,51.94
2022-11-18T22:12:31.285Z,51.97
2022-11-18T22:15:06.287Z,51.67
2022-11-18T22:17:38.537Z,51.90
2022-11-18T22:20:13.932Z,51.91
2022-11-18T22:22:42.583Z,52.35
2022-11-18T22:25:20.534Z,52.52
2022-11-18T22:27:50.100Z,52.66
2022-11-18T22:30:21.442Z,52.29
2022-11-18T22:32:53.369Z,52.51
2022-11-18T22:35:21.947Z,52.20
2022-11-18T22:37:50.413Z,52.35
2022-11-18T22:40:22.201Z,52.17
2022-11-18T22:42:49.366Z,52.44
2022-11-18T22:45:20.218Z,52.69
2022-11-18T22:47:52.504Z,52.69
2022-11-18T22:56:50.741Z,52.88
2022-11-18T22:59:19.694Z,52.77
2022-11-18T23:01:52.484Z,52.78
2022-11-18T23:04:25.926Z,52.74
2022-11-18T23:06:56.736Z,52.55
2022-11-18T23:09:26.945Z,52.71
2022-11-18T23:12:13.926Z,52.70
2022-11-18T23:14:43.604Z,52.81
2022-11-18T23:17:17.410Z,52.76
2022-11-18T23:19:47.778Z,53.01
2022-11-18T23:22:22.612Z,53.24
2022-11-18T23:24:54.741Z,52.87
2022-11-18T23:27:23.997Z,53.37
2022-11-18T23:29:52.771Z,53.24
2022-11-18T23:32:36.200Z,53.44
2022-11-18T23:35:06.583Z,52.92
2022-11-18T23:37:36.164Z,53.10
2022-11-18T23:40:06.502Z,53.15
2022-11-18T23:42:45.063Z,53.00
2022-11-18T23:45:17.921Z,52.72
2022-11-18T23:47:48.800Z,52.88
2022-11-18T23:50:18.660Z,53.14
2022-11-18T23:52:50.663Z,52.84
2022-11-18T23:55:19.709Z,53.13
2022-11-18T23:57:48.153Z,52.65
